Time;durP1;ratioP1;P1;durP2;ratioP2;P2;SDS_P1;SDS_P2;PMS_P1;PMS_P2;Temp;Humidity;BMP_temperature;BMP_pressure;BME280_temperature;BME280_humidity;BME280_pressure;Samples;Min_cycle;Max_cycle;Signal;HPM_P1;HPM_P2
2022/11/21 00:00:15;;;;;;;;;;;1.10;99.90;;;;;;5088937;28;19930;-65
2022/11/21 00:02:40;;;;;;;;;;;1.10;99.90;;;;;;5086571;28;19959;-65
2022/11/21 00:05:06;;;;;;;;;;;1.10;99.90;;;;;;5086744;28;20006;-65
2022/11/21 00:07:31;;;;;;;;;;;1.20;99.90;;;;;;5119746;27;19920;-65
2022/11/21 00:09:57;;;;;;;;;;;1.10;99.90;;;;;;5090954;28;19963;-65
2022/11/21 00:12:22;;;;;;;;;;;1.20;99.90;;;;;;5088958;28;20432;-65
2022/11/21 00:14:48;;;;;;;;;;;1.10;99.90;;;;;;5095591;28;19919;-66
2022/11/21 00:17:13;;;;;;;;;;;1.20;99.90;;;;;;5087180;28;20278;-66
2022/11/21 00:19:39;;;;;;;;;;;1.20;99.90;;;;;;5072736;28;19928;-66
2022/11/21 00:22:04;;;;;;;;;;;1.20;99.90;;;;;;5117896;27;20063;-66
2022/11/21 00:24:30;;;;;;;;;;;1.20;99.90;;;;;;5090886;28;19920;-66
2022/11/21 00:26:55;;;;;;;;;;;1.20;99.90;;;;;;5087456;28;20282;-66
2022/11/21 00:29:21;;;;;;;;;;;1.20;99.90;;;;;;5079245;28;19966;-66
2022/11/21 00:31:46;;;;;;;;;;;1.10;99.90;;;;;;5085418;28;19924;-67
2022/11/21 00:34:12;;;;;;;;;;;1.10;99.90;;;;;;5084132;28;20488;-67
2022/11/21 00:36:37;;;;;;;;;;;1.10;99.90;;;;;;5086580;28;20521;-67
2022/11/21 00:39:03;;;;;;;;;;;1.10;99.90;;;;;;5083778;28;20456;-67
2022/11/21 00:41:28;;;;;;;;;;;1.10;99.90;;;;;;5090248;28;20282;-67
2022/11/21 00:43:53;;;;;;;;;;;1.20;99.90;;;;;;5090746;28;20018;-67
2022/11/21 00:46:19;;;;;;;;;;;1.20;99.90;;;;;;5080505;28;19920;-67
2022/11/21 00:48:44;;;;;;;;;;;1.10;99.90;;;;;;5080757;28;20377;-67
2022/11/21 00:51:10;;;;;;;;;;;1.10;99.90;;;;;;5091800;28;19920;-67
2022/11/21 00:53:35;;;;;;;;;;;1.10;99.90;;;;;;5120437;27;19955;-67
2022/11/21 00:56:01;;;;;;;;;;;1.10;99.90;;;;;;5080338;28;20302;-67
2022/11/21 00:58:26;;;;;;;;;;;1.10;99.90;;;;;;5087235;28;20453;-67
2022/11/21 01:00:52;;;;;;;;;;;1.10;99.90;;;;;;5080483;28;20343;-67
2022/11/21 01:03:17;;;;;;;;;;;1.00;99.90;;;;;;5103319;28;19924;-67
2022/11/21 01:05:43;;;;;;;;;;;1.10;99.90;;;;;;5088439;28;19927;-67
2022/11/21 01:08:08;;;;;;;;;;;1.20;99.90;;;;;;5089230;28;19923;-66
2022/11/21 01:10:34;;;;;;;;;;;1.10;99.90;;;;;;5103763;27;20019;-67
2022/11/21 01:13:00;;;;;;;;;;;1.10;99.90;;;;;;5103147;28;19920;-67
2022/11/21 01:15:25;;;;;;;;;;;1.10;99.90;;;;;;5135305;27;20298;-67
2022/11/21 01:17:51;;;;;;;;;;;1.10;99.90;;;;;;5097640;28;19927;-67
2022/11/21 01:20:16;;;;;;;;;;;1.10;99.90;;;;;;5099846;28;19967;-67
2022/11/21 01:22:42;;;;;;;;;;;1.00;99.90;;;;;;5101474;28;19920;-67
2022/11/21 01:25:07;;;;;;;;;;;1.00;99.90;;;;;;5099480;28;19920;-67
2022/11/21 01:27:33;;;;;;;;;;;1.00;99.90;;;;;;5106555;28;19923;-67
2022/11/21 01:29:58;;;;;;;;;;;1.10;99.90;;;;;;5097972;28;19981;-67
2022/11/21 01:32:24;;;;;;;;;;;1.10;99.90;;;;;;5104140;28;19920;-67
2022/11/21 01:34:49;;;;;;;;;;;1.00;99.90;;;;;;5100437;28;20023;-67
2022/11/21 01:37:14;;;;;;;;;;;1.00;99.90;;;;;;5100134;28;19923;-67
2022/11/21 01:39:40;;;;;;;;;;;1.10;99.90;;;;;;5095113;28;19985;-67
2022/11/21 01:42:05;;;;;;;;;;;1.10;99.90;;;;;;5105658;28;19928;-67
2022/11/21 01:44:47;;;;;;;;;;;1.10;99.90;;;;;;5107979;28;19927;-67
2022/11/21 01:47:13;;;;;;;;;;;1.10;99.90;;;;;;5097906;28;19920;-67
2022/11/21 01:49:39;;;;;;;;;;;1.10;99.90;;;;;;5099998;28;20336;-67
2022/11/21 01:52:16;;;;;;;;;;;1.10;99.90;;;;;;5100446;28;20434;-67
2022/11/21 01:54:54;;;;;;;;;;;1.10;99.90;;;;;;5105605;28;19965;-67
2022/11/21 01:57:22;;;;;;;;;;;1.00;99.90;;;;;;5099960;28;19920;-67
2022/11/21 01:59:51;;;;;;;;;;;1.10;99.90;;;;;;5105822;28;19967;-67
2022/11/21 02:02:19;;;;;;;;;;;1.00;99.90;;;;;;5100339;28;19981;-66
2022/11/21 02:04:45;;;;;;;;;;;1.10;99.90;;;;;;5096870;28;20299;-67
2022/11/21 02:07:12;;;;;;;;;;;1.10;99.90;;;;;;5093449;28;19928;-67
2022/11/21 02:09:39;;;;;;;;;;;1.10;99.90;;;;;;5137511;27;19954;-67
2022/11/21 02:12:07;;;;;;;;;;;1.10;99.90;;;;;;5103029;28;20000;-67
2022/11/21 02:14:33;;;;;;;;;;;1.10;99.90;;;;;;5097966;28;19920;-67
2022/11/21 02:17:01;;;;;;;;;;;1.20;99.90;;;;;;5096942;28;19920;-67
2022/11/21 02:19:32;;;;;;;;;;;1.00;99.90;;;;;;5098239;28;20405;-67
2022/11/21 02:22:03;;;;;;;;;;;1.00;99.90;;;;;;5090795;28;20016;-67
2022/11/21 02:24:48;;;;;;;;;;;1.00;99.90;;;;;;5099624;28;19920;-67
2022/11/21 02:27:15;;;;;;;;;;;1.10;99.90;;;;;;5080281;28;20371;-67
2022/11/21 02:29:40;;;;;;;;;;;1.00;99.90;;;;;;5100978;28;19965;-67
2022/11/21 02:32:06;;;;;;;;;;;1.00;99.90;;;;;;5105155;28;19928;-67
2022/11/21 02:34:32;;;;;;;;;;;1.00;99.90;;;;;;5103700;28;19926;-67
2022/11/21 02:36:58;;;;;;;;;;;1.10;99.90;;;;;;5098853;28;19920;-67
2022/11/21 02:39:31;;;;;;;;;;;1.00;99.90;;;;;;5134257;27;19932;-67
2022/11/21 02:42:01;;;;;;;;;;;1.00;99.90;;;;;;5092509;28;19975;-67
2022/11/21 02:44:30;;;;;;;;;;;1.10;99.90;;;;;;5107114;28;19924;-67
2022/11/21 02:46:56;;;;;;;;;;;1.10;99.90;;;;;;5107554;28;20422;-67
2022/11/21 02:49:48;;;;;;;;;;;1.00;99.90;;;;;;5092884;28;20010;-67
2022/11/21 02:52:13;;;;;;;;;;;1.00;99.90;;;;;;5097942;28;20015;-67
2022/11/21 02:54:39;;;;;;;;;;;0.90;99.90;;;;;;5133397;27;20018;-67
2022/11/21 02:57:04;;;;;;;;;;;1.00;99.90;;;;;;5107114;28;19927;-67
2022/11/21 02:59:29;;;;;;;;;;;1.00;99.90;;;;;;5134569;27;19931;-67
2022/11/21 03:01:58;;;;;;;;;;;1.00;99.90;;;;;;5104077;28;19934;-67
2022/11/21 03:04:24;;;;;;;;;;;1.00;99.90;;;;;;5101848;28;19977;-67
2022/11/21 03:06:50;;;;;;;;;;;1.00;99.90;;;;;;5109405;28;19965;-67
2022/11/21 03:09:15;;;;;;;;;;;1.00;99.90;;;;;;5122027;27;20324;-67
2022/11/21 03:11:41;;;;;;;;;;;0.90;99.90;;;;;;5110726;27;19927;-66
2022/11/21 03:14:06;;;;;;;;;;;0.80;99.90;;;;;;5102132;27;20422;-66
2022/11/21 03:16:31;;;;;;;;;;;0.80;99.90;;;;;;5106548;28;20294;-66
2022/11/21 03:18:57;;;;;;;;;;;0.70;99.90;;;;;;5101432;28;19919;-67
2022/11/21 03:21:22;;;;;;;;;;;0.70;99.90;;;;;;5108220;27;19934;-66
2022/11/21 03:23:48;;;;;;;;;;;0.70;99.90;;;;;;5105542;28;19927;-66
2022/11/21 03:26:13;;;;;;;;;;;0.60;99.90;;;;;;5105889;28;20007;-66
2022/11/21 03:28:40;;;;;;;;;;;0.60;99.90;;;;;;5100131;28;19920;-66
2022/11/21 03:31:05;;;;;;;;;;;0.60;99.90;;;;;;5110176;28;19971;-66
2022/11/21 03:33:30;;;;;;;;;;;0.50;99.90;;;;;;5110776;27;20001;-66
2022/11/21 03:35:56;;;;;;;;;;;0.50;99.90;;;;;;5105753;28;19924;-66
2022/11/21 03:38:22;;;;;;;;;;;0.50;99.90;;;;;;5102505;28;19919;-66
2022/11/21 03:40:47;;;;;;;;;;;0.40;99.90;;;;;;5101735;28;19924;-66
2022/11/21 03:43:13;;;;;;;;;;;0.40;99.90;;;;;;5107786;28;19927;-66
2022/11/21 03:45:38;;;;;;;;;;;0.30;99.90;;;;;;5099795;28;20465;-66
2022/11/21 03:48:04;;;;;;;;;;;0.30;99.90;;;;;;5105451;28;19924;-66
2022/11/21 03:50:29;;;;;;;;;;;0.30;99.90;;;;;;5107850;28;20010;-66
2022/11/21 03:52:55;;;;;;;;;;;0.30;99.90;;;;;;5098366;28;19920;-66
2022/11/21 03:55:20;;;;;;;;;;;0.30;99.90;;;;;;5110375;28;19924;-66
2022/11/21 03:57:46;;;;;;;;;;;0.30;99.90;;;;;;5099433;28;20391;-66
2022/11/21 04:00:12;;;;;;;;;;;0.40;99.90;;;;;;5107661;28;20048;-66
2022/11/21 04:02:37;;;;;;;;;;;0.20;99.90;;;;;;5091591;27;19926;-66
2022/11/21 04:05:03;;;;;;;;;;;0.30;99.90;;;;;;5098170;28;20255;-66
2022/11/21 04:07:28;;;;;;;;;;;0.30;99.90;;;;;;5090203;28;19942;-66
2022/11/21 04:09:54;;;;;;;;;;;0.30;99.90;;;;;;5095423;27;19924;-66
2022/11/21 04:12:21;;;;;;;;;;;0.30;99.90;;;;;;5096602;28;21277;-66
2022/11/21 04:14:47;;;;;;;;;;;0.20;99.90;;;;;;5103993;28;20298;-66
2022/11/21 04:17:12;;;;;;;;;;;0.10;99.90;;;;;;5109044;28;19919;-66
2022/11/21 04:19:38;;;;;;;;;;;0.10;99.90;;;;;;5098744;28;19939;-66
2022/11/21 04:22:03;;;;;;;;;;;0.00;99.90;;;;;;5103382;27;19930;-66
2022/11/21 04:24:28;;;;;;;;;;;0.00;99.90;;;;;;5107696;27;19963;-66
2022/11/21 04:26:54;;;;;;;;;;;-0.10;99.90;;;;;;5101973;28;19985;-66
2022/11/21 04:29:20;;;;;;;;;;;-0.10;99.90;;;;;;5097750;28;19920;-66
2022/11/21 04:31:45;;;;;;;;;;;-0.10;99.90;;;;;;5138859;27;19924;-66
2022/11/21 04:34:11;;;;;;;;;;;-0.10;99.90;;;;;;5123989;27;19924;-66
2022/11/21 04:36:36;;;;;;;;;;;-0.10;99.90;;;;;;5100028;28;19934;-66
2022/11/21 04:39:02;;;;;;;;;;;-0.20;99.90;;;;;;5103992;28;20357;-66
2022/11/21 04:41:27;;;;;;;;;;;-0.20;99.90;;;;;;5108684;28;19924;-66
2022/11/21 04:43:53;;;;;;;;;;;-0.20;99.90;;;;;;5099857;28;19970;-66
2022/11/21 04:46:18;;;;;;;;;;;-0.30;99.90;;;;;;5092212;28;20149;-66
2022/11/21 04:48:44;;;;;;;;;;;-0.30;99.90;;;;;;5099634;28;19919;-66
2022/11/21 04:51:09;;;;;;;;;;;-0.40;99.90;;;;;;5096409;28;19920;-66
2022/11/21 04:53:34;;;;;;;;;;;-0.40;99.90;;;;;;5095940;28;19985;-65
2022/11/21 04:56:04;;;;;;;;;;;-0.40;99.90;;;;;;5095461;28;19995;-66
2022/11/21 04:58:29;;;;;;;;;;;-0.50;99.90;;;;;;5090362;27;19977;-65
2022/11/21 05:00:55;;;;;;;;;;;-0.50;99.90;;;;;;5089392;28;19924;-65
2022/11/21 05:03:20;;;;;;;;;;;-0.50;99.90;;;;;;5091496;28;19963;-65
2022/11/21 05:05:46;;;;;;;;;;;-0.50;99.90;;;;;;5087217;27;19934;-66
2022/11/21 05:08:12;;;;;;;;;;;-0.60;99.90;;;;;;5095243;28;20255;-65
2022/11/21 05:13:19;;;;;;;;;;;-0.60;99.90;;;;;;5097643;28;19935;-65
2022/11/21 05:13:23;;;;;;;;;;;-0.60;99.90;;;;;;5093859;28;19998;-65
2022/11/21 05:15:54;;;;;;;;;;;-0.70;99.90;;;;;;5094925;27;19967;-65
2022/11/21 05:18:20;;;;;;;;;;;-0.70;99.90;;;;;;5092114;28;19920;-65
2022/11/21 05:20:45;;;;;;;;;;;-0.70;99.90;;;;;;5096234;28;19928;-65
2022/11/21 05:23:11;;;;;;;;;;;-0.90;99.90;;;;;;5093846;28;20301;-65
2022/11/21 05:25:36;;;;;;;;;;;-0.90;99.90;;;;;;5101175;28;19977;-65
2022/11/21 05:28:01;;;;;;;;;;;-0.90;99.90;;;;;;5089585;28;19920;-65
2022/11/21 05:30:27;;;;;;;;;;;-0.90;99.90;;;;;;5094301;28;19972;-64
2022/11/21 05:32:52;;;;;;;;;;;-0.90;99.90;;;;;;5091023;27;19927;-65
2022/11/21 05:35:18;;;;;;;;;;;-0.80;99.90;;;;;;5097255;28;20378;-64
2022/11/21 05:37:43;;;;;;;;;;;-0.90;99.90;;;;;;5095268;28;20230;-65
2022/11/21 05:40:09;;;;;;;;;;;-0.90;99.90;;;;;;5097015;28;20371;-64
2022/11/21 05:45:21;;;;;;;;;;;-0.80;99.90;;;;;;5094910;28;20010;-64
2022/11/21 05:47:47;;;;;;;;;;;-0.90;99.90;;;;;;5096221;28;19938;-64
2022/11/21 05:50:12;;;;;;;;;;;-0.80;99.90;;;;;;5125008;27;19928;-64
2022/11/21 05:52:38;;;;;;;;;;;-0.90;99.90;;;;;;5095523;28;20424;-64
2022/11/21 05:55:03;;;;;;;;;;;-0.90;99.90;;;;;;5096806;28;19928;-64
2022/11/21 05:57:29;;;;;;;;;;;-0.90;99.90;;;;;;5094390;28;19975;-64
2022/11/21 05:59:55;;;;;;;;;;;-0.90;99.90;;;;;;5093086;28;19973;-64
2022/11/21 06:05:05;;;;;;;;;;;-0.90;99.90;;;;;;5092427;28;19977;-64
2022/11/21 06:07:30;;;;;;;;;;;-1.00;99.90;;;;;;5097467;28;20003;-64
2022/11/21 06:09:55;;;;;;;;;;;-0.90;99.90;;;;;;5081563;28;19920;-65
2022/11/21 06:12:21;;;;;;;;;;;-1.00;99.90;;;;;;5078533;28;20821;-65
2022/11/21 06:14:46;;;;;;;;;;;-1.00;99.90;;;;;;5111420;28;20029;-65
2022/11/21 06:17:12;;;;;;;;;;;-1.10;99.90;;;;;;5077247;28;19920;-65
2022/11/21 06:19:37;;;;;;;;;;;-1.10;99.90;;;;;;5079346;28;19931;-65
2022/11/21 06:22:03;;;;;;;;;;;-1.10;99.90;;;;;;5084314;28;19924;-65
2022/11/21 06:24:28;;;;;;;;;;;-1.20;99.90;;;;;;5084583;28;19928;-65
2022/11/21 06:26:53;;;;;;;;;;;-1.20;99.90;;;;;;5075904;28;20394;-64
2022/11/21 06:29:21;;;;;;;;;;;-1.10;99.90;;;;;;5072389;28;20334;-65
2022/11/21 06:31:46;;;;;;;;;;;-1.20;99.90;;;;;;5078359;28;19985;-65
2022/11/21 06:34:12;;;;;;;;;;;-1.20;99.90;;;;;;5077879;28;19928;-65
2022/11/21 06:36:37;;;;;;;;;;;-1.00;99.90;;;;;;5080875;28;20354;-65
2022/11/21 06:39:03;;;;;;;;;;;-1.10;99.90;;;;;;5111818;27;19927;-65
2022/11/21 06:41:29;;;;;;;;;;;-1.10;99.90;;;;;;5075674;28;19920;-65
2022/11/21 06:43:57;;;;;;;;;;;-1.10;99.90;;;;;;5083487;28;19928;-65
2022/11/21 06:46:22;;;;;;;;;;;-1.10;99.90;;;;;;5077008;28;19924;-65
2022/11/21 06:48:48;;;;;;;;;;;-1.10;99.90;;;;;;5080106;28;19931;-65
2022/11/21 06:51:18;;;;;;;;;;;-1.00;99.90;;;;;;5076112;28;19969;-65
2022/11/21 06:53:43;;;;;;;;;;;-1.00;99.90;;;;;;5100387;28;19920;-65
2022/11/21 06:56:09;;;;;;;;;;;-1.00;99.90;;;;;;5085083;28;20404;-65
2022/11/21 06:58:35;;;;;;;;;;;-0.90;99.90;;;;;;5088036;28;20035;-65
2022/11/21 07:01:04;;;;;;;;;;;-0.80;99.90;;;;;;5115064;27;19934;-65
2022/11/21 07:03:30;;;;;;;;;;;-0.80;99.90;;;;;;5082179;28;19926;-65
2022/11/21 07:05:59;;;;;;;;;;;-0.70;99.90;;;;;;5081974;28;19924;-65
2022/11/21 07:08:26;;;;;;;;;;;-0.70;99.90;;;;;;5088777;28;20283;-66
2022/11/21 07:10:51;;;;;;;;;;;-0.70;99.90;;;;;;5095491;28;19924;-65
2022/11/21 07:13:23;;;;;;;;;;;-0.80;99.90;;;;;;5081476;27;20080;-65
2022/11/21 07:15:53;;;;;;;;;;;-0.80;99.90;;;;;;5091509;28;21455;-65
2022/11/21 07:18:19;;;;;;;;;;;-0.80;99.90;;;;;;5091758;27;19924;-65
2022/11/21 07:20:44;;;;;;;;;;;-0.80;99.90;;;;;;5091745;28;19927;-65
2022/11/21 07:23:10;;;;;;;;;;;-0.80;99.90;;;;;;5127519;27;19927;-65
2022/11/21 07:25:35;;;;;;;;;;;-0.70;99.90;;;;;;5090908;27;19931;-65
2022/11/21 07:28:01;;;;;;;;;;;-0.80;99.90;;;;;;5098774;27;19959;-65
2022/11/21 07:30:27;;;;;;;;;;;-0.60;99.90;;;;;;5091071;28;19931;-65
2022/11/21 07:32:59;;;;;;;;;;;-0.70;99.90;;;;;;5097078;27;19927;-65
2022/11/21 07:35:25;;;;;;;;;;;-0.70;99.90;;;;;;5100606;27;20397;-65
2022/11/21 07:37:51;;;;;;;;;;;-0.60;99.90;;;;;;5097727;27;19920;-65
2022/11/21 07:40:16;;;;;;;;;;;-0.50;99.90;;;;;;5096681;27;20291;-64
2022/11/21 07:42:42;;;;;;;;;;;-0.50;99.90;;;;;;5091188;28;19926;-65
2022/11/21 07:45:07;;;;;;;;;;;-0.60;99.90;;;;;;5092992;27;19931;-64
2022/11/21 07:47:33;;;;;;;;;;;-0.50;99.90;;;;;;5127856;27;20022;-65
2022/11/21 07:49:58;;;;;;;;;;;-0.40;99.90;;;;;;5097479;28;19921;-64
2022/11/21 07:52:24;;;;;;;;;;;-0.50;99.90;;;;;;5125531;27;20359;-65
2022/11/21 07:54:50;;;;;;;;;;;-0.40;99.90;;;;;;5130960;27;20270;-65
2022/11/21 07:57:15;;;;;;;;;;;-0.40;99.90;;;;;;5093239;28;19924;-65
2022/11/21 07:59:41;;;;;;;;;;;-0.30;99.90;;;;;;5107719;27;20301;-65
2022/11/21 08:02:12;;;;;;;;;;;-0.40;99.90;;;;;;5100021;27;19928;-65
2022/11/21 08:04:37;;;;;;;;;;;-0.30;99.90;;;;;;5139415;27;20049;-65
2022/11/21 08:07:03;;;;;;;;;;;-0.30;99.90;;;;;;5136574;27;20041;-65
2022/11/21 08:09:29;;;;;;;;;;;-0.20;99.90;;;;;;5109042;28;19919;-65
2022/11/21 08:11:54;;;;;;;;;;;-0.30;99.90;;;;;;5102307;28;19924;-65
2022/11/21 08:14:19;;;;;;;;;;;-0.20;99.90;;;;;;5102479;28;19920;-65
2022/11/21 08:16:45;;;;;;;;;;;-0.20;99.90;;;;;;5103586;27;19924;-66
2022/11/21 08:19:10;;;;;;;;;;;0.00;99.90;;;;;;5101155;28;20483;-66
2022/11/21 08:21:36;;;;;;;;;;;0.00;99.90;;;;;;5093772;28;20290;-66
2022/11/21 08:24:01;;;;;;;;;;;0.10;99.90;;;;;;5108766;27;19966;-66
2022/11/21 08:26:27;;;;;;;;;;;0.10;99.90;;;;;;5099763;28;19931;-66
2022/11/21 08:28:52;;;;;;;;;;;0.20;99.90;;;;;;5108184;27;20040;-66
2022/11/21 08:31:18;;;;;;;;;;;0.20;99.90;;;;;;5106992;27;20383;-66
2022/11/21 08:33:43;;;;;;;;;;;0.30;99.90;;;;;;5118463;27;19926;-66
2022/11/21 08:36:09;;;;;;;;;;;0.20;99.90;;;;;;5092846;28;19954;-66
2022/11/21 08:38:34;;;;;;;;;;;0.30;99.90;;;;;;5124784;27;19920;-65
2022/11/21 08:43:44;;;;;;;;;;;0.50;99.90;;;;;;5107542;28;19973;-65
2022/11/21 08:46:10;;;;;;;;;;;0.50;99.90;;;;;;5107935;28;19928;-66
2022/11/21 08:48:35;;;;;;;;;;;0.60;99.90;;;;;;5108264;27;20397;-66
2022/11/21 08:51:01;;;;;;;;;;;0.60;99.90;;;;;;5102166;28;19928;-66
2022/11/21 08:53:26;;;;;;;;;;;0.60;99.90;;;;;;5108550;27;19924;-66
2022/11/21 08:55:52;;;;;;;;;;;0.60;99.90;;;;;;5105333;27;19963;-66
2022/11/21 08:58:18;;;;;;;;;;;0.70;99.90;;;;;;5105930;27;20293;-66
2022/11/21 09:00:43;;;;;;;;;;;0.80;99.90;;;;;;5130816;27;19924;-66
2022/11/21 09:03:09;;;;;;;;;;;0.80;99.90;;;;;;5095671;28;20366;-66
2022/11/21 09:05:34;;;;;;;;;;;0.80;99.90;;;;;;5102259;28;19946;-66
2022/11/21 09:08:00;;;;;;;;;;;1.00;99.90;;;;;;5102859;28;19973;-66
2022/11/21 09:10:26;;;;;;;;;;;1.00;99.90;;;;;;5092541;28;19931;-67
2022/11/21 09:12:51;;;;;;;;;;;0.90;99.90;;;;;;5109597;28;19927;-66
2022/11/21 09:18:03;;;;;;;;;;;1.00;99.90;;;;;;5083664;28;19924;-66
2022/11/21 09:20:30;;;;;;;;;;;1.20;99.90;;;;;;5103075;28;20002;-67
2022/11/21 09:22:55;;;;;;;;;;;1.20;99.90;;;;;;5096722;28;20033;-67
2022/11/21 09:25:21;;;;;;;;;;;1.30;99.90;;;;;;5102981;28;19965;-67
2022/11/21 09:27:46;;;;;;;;;;;1.20;99.90;;;;;;5102241;27;20402;-67
2022/11/21 09:30:12;;;;;;;;;;;1.30;99.90;;;;;;5093220;27;19920;-67
2022/11/21 09:32:39;;;;;;;;;;;1.40;99.90;;;;;;5096633;28;20370;-67
2022/11/21 09:35:05;;;;;;;;;;;1.40;99.90;;;;;;5074226;28;19920;-67
2022/11/21 09:37:35;;;;;;;;;;;1.40;99.90;;;;;;5095507;28;19920;-67
2022/11/21 09:40:01;;;;;;;;;;;1.50;99.90;;;;;;5089923;28;20416;-67
2022/11/21 09:42:34;;;;;;;;;;;1.60;99.90;;;;;;5092161;28;19932;-67
2022/11/21 09:45:15;;;;;;;;;;;1.60;99.90;;;;;;5098391;28;19924;-67
2022/11/21 09:47:48;;;;;;;;;;;1.60;99.90;;;;;;5087810;28;19994;-67
2022/11/21 09:50:13;;;;;;;;;;;1.70;99.90;;;;;;5093027;28;19949;-67
2022/11/21 09:52:47;;;;;;;;;;;1.60;99.90;;;;;;5089510;28;20385;-67
2022/11/21 09:55:22;;;;;;;;;;;1.70;99.90;;;;;;5099803;28;19919;-67
2022/11/21 09:57:48;;;;;;;;;;;1.70;99.90;;;;;;5132515;27;20041;-68
2022/11/21 10:00:23;;;;;;;;;;;1.70;99.90;;;;;;5104464;28;20004;-67
2022/11/21 10:02:49;;;;;;;;;;;1.80;99.90;;;;;;5130408;27;20527;-68
2022/11/21 10:05:15;;;;;;;;;;;1.80;99.90;;;;;;5103047;28;20008;-68
2022/11/21 10:07:41;;;;;;;;;;;1.80;99.90;;;;;;5095167;28;20365;-67
2022/11/21 10:10:16;;;;;;;;;;;1.80;99.90;;;;;;5132050;27;20306;-67
2022/11/21 10:12:49;;;;;;;;;;;2.00;99.90;;;;;;5087081;28;19920;-66
2022/11/21 10:15:22;;;;;;;;;;;2.00;99.90;;;;;;5067145;28;19988;-66
2022/11/21 10:18:16;;;;;;;;;;;2.10;99.90;;;;;;5088614;28;19924;-67
2022/11/21 10:21:00;;;;;;;;;;;2.20;99.90;;;;;;5104441;28;19928;-67
2022/11/21 10:23:50;;;;;;;;;;;2.10;99.90;;;;;;5079004;28;20299;-69
2022/11/21 10:26:19;;;;;;;;;;;2.10;99.90;;;;;;5079711;28;19931;-69
2022/11/21 10:28:47;;;;;;;;;;;2.20;99.90;;;;;;5123903;27;19972;-69
2022/11/21 10:31:14;;;;;;;;;;;2.20;99.90;;;;;;5081070;28;20365;-68
2022/11/21 10:33:39;;;;;;;;;;;2.30;99.90;;;;;;5099600;28;20046;-69
2022/11/21 10:36:05;;;;;;;;;;;2.30;99.90;;;;;;5090041;28;20900;-69
2022/11/21 10:38:35;;;;;;;;;;;2.40;99.90;;;;;;5079680;28;19920;-69
2022/11/21 10:41:03;;;;;;;;;;;2.30;99.90;;;;;;5077888;28;19925;-68
2022/11/21 10:46:22;;;;;;;;;;;2.50;99.90;;;;;;5121549;28;19991;-68
2022/11/21 10:48:59;;;;;;;;;;;2.50;99.90;;;;;;5073535;28;20325;-69
2022/11/21 10:51:27;;;;;;;;;;;2.60;99.90;;;;;;5081234;28;19928;-68
2022/11/21 10:56:47;;;;;;;;;;;2.60;99.90;;;;;;5080406;28;19982;-68
2022/11/21 10:59:21;;;;;;;;;;;2.70;99.90;;;;;;5079165;28;19959;-68
2022/11/21 11:01:53;;;;;;;;;;;2.70;99.90;;;;;;5112507;28;21399;-68
2022/11/21 11:04:20;;;;;;;;;;;2.70;99.90;;;;;;5075998;28;19919;-69
2022/11/21 11:06:46;;;;;;;;;;;2.70;99.90;;;;;;5081650;28;19992;-68
2022/11/21 11:09:46;;;;;;;;;;;2.80;99.90;;;;;;5118627;27;19928;-68
2022/11/21 11:15:19;;;;;;;;;;;2.90;99.90;;;;;;5128594;27;21365;-68
2022/11/21 11:17:48;;;;;;;;;;;2.80;99.90;;;;;;5111668;27;19927;-68
2022/11/21 11:20:32;;;;;;;;;;;2.90;99.90;;;;;;5136721;27;19934;-68
2022/11/21 11:22:57;;;;;;;;;;;2.90;99.90;;;;;;5101009;28;19927;-68
2022/11/21 11:25:23;;;;;;;;;;;2.90;99.90;;;;;;5098367;28;19972;-68
2022/11/21 11:27:48;;;;;;;;;;;3.00;99.90;;;;;;5100845;28;19920;-69
2022/11/21 11:30:15;;;;;;;;;;;3.00;99.90;;;;;;5101941;27;20332;-69
2022/11/21 11:32:40;;;;;;;;;;;3.00;99.90;;;;;;5104104;28;20006;-68
2022/11/21 11:35:16;;;;;;;;;;;3.00;99.90;;;;;;5097460;28;20010;-68
2022/11/21 11:37:47;;;;;;;;;;;3.00;99.90;;;;;;5130586;27;19928;-68
2022/11/21 11:40:18;;;;;;;;;;;3.10;99.90;;;;;;5078474;28;19938;-69
2022/11/21 11:48:35;;;;;;;;;;;3.30;99.90;;;;;;5098213;28;19931;-69
2022/11/21 11:51:03;;;;;;;;;;;3.30;99.90;;;;;;5095456;27;19924;-69
2022/11/21 11:53:31;;;;;;;;;;;3.30;99.90;;;;;;5075145;28;19977;-70
2022/11/21 11:56:00;;;;;;;;;;;3.30;99.90;;;;;;5099133;27;19924;-71
2022/11/21 11:58:38;;;;;;;;;;;3.40;99.90;;;;;;5090947;27;20416;-71
2022/11/21 12:01:12;;;;;;;;;;;3.40;99.90;;;;;;5093717;27;19927;-71
2022/11/21 12:03:42;;;;;;;;;;;3.50;99.90;;;;;;5094405;28;19927;-71
2022/11/21 12:06:11;;;;;;;;;;;3.50;99.90;;;;;;5092165;27;19935;-72
2022/11/21 12:08:47;;;;;;;;;;;3.60;99.90;;;;;;5097771;28;20069;-72
2022/11/21 12:12:06;;;;;;;;;;;3.70;99.90;;;;;;5124492;27;19923;-72
2022/11/21 12:17:32;;;;;;;;;;;3.80;99.90;;;;;;5091901;27;19953;-71
2022/11/21 12:19:58;;;;;;;;;;;3.80;99.90;;;;;;5092583;27;19935;-72
2022/11/21 12:22:23;;;;;;;;;;;3.90;99.90;;;;;;5093893;27;19926;-72
2022/11/21 12:24:49;;;;;;;;;;;3.90;99.90;;;;;;5095699;27;19966;-72
2022/11/21 12:27:28;;;;;;;;;;;3.90;99.90;;;;;;5097416;28;19963;-72
2022/11/21 12:30:19;;;;;;;;;;;3.90;99.90;;;;;;5095857;28;20010;-72
2022/11/21 12:32:57;;;;;;;;;;;3.90;99.90;;;;;;5081800;27;19967;-72
2022/11/21 12:35:42;;;;;;;;;;;3.90;99.90;;;;;;5127272;27;19928;-72
2022/11/21 12:38:17;;;;;;;;;;;3.90;99.90;;;;;;5128833;27;19928;-72
2022/11/21 12:40:58;;;;;;;;;;;3.90;99.90;;;;;;5100541;27;19963;-73
2022/11/21 12:43:31;;;;;;;;;;;4.00;99.90;;;;;;5098315;28;19920;-73
2022/11/21 12:46:00;;;;;;;;;;;3.90;99.90;;;;;;5124763;27;19923;-73
2022/11/21 12:54:29;;;;;;;;;;;4.10;99.90;;;;;;5100961;28;19934;-71
2022/11/21 12:56:58;;;;;;;;;;;4.10;99.90;;;;;;5097977;28;19928;-70
2022/11/21 12:59:24;;;;;;;;;;;4.10;99.90;;;;;;5130164;27;19935;-72
2022/11/21 13:01:56;;;;;;;;;;;4.10;99.90;;;;;;5093175;28;20331;-71
2022/11/21 13:04:28;;;;;;;;;;;4.00;99.90;;;;;;5132340;27;20304;-72
2022/11/21 13:06:55;;;;;;;;;;;4.10;99.90;;;;;;5083126;28;19924;-72
2022/11/21 13:09:22;;;;;;;;;;;4.00;99.90;;;;;;5096497;27;19929;-73
2022/11/21 13:11:58;;;;;;;;;;;4.00;99.90;;;;;;5100375;27;19935;-72
2022/11/21 13:14:29;;;;;;;;;;;4.00;99.90;;;;;;5103521;28;19919;-71
2022/11/21 13:17:10;;;;;;;;;;;4.10;99.90;;;;;;5091307;28;19931;-72
2022/11/21 13:19:50;;;;;;;;;;;4.00;99.90;;;;;;5096724;28;19928;-72
2022/11/21 13:22:34;;;;;;;;;;;4.10;99.90;;;;;;5123384;27;19923;-72
2022/11/21 13:25:10;;;;;;;;;;;4.10;99.90;;;;;;5097656;28;19924;-72
2022/11/21 13:27:37;;;;;;;;;;;4.00;99.90;;;;;;5100898;28;19924;-71
2022/11/21 13:30:05;;;;;;;;;;;4.20;99.90;;;;;;5096052;27;19920;-71
2022/11/21 13:32:40;;;;;;;;;;;4.20;99.90;;;;;;5130423;27;20367;-72
2022/11/21 13:35:18;;;;;;;;;;;4.10;99.90;;;;;;5099823;27;19919;-72
2022/11/21 13:37:59;;;;;;;;;;;4.10;99.90;;;;;;5128242;27;19920;-72
2022/11/21 13:40:30;;;;;;;;;;;4.10;99.90;;;;;;5129012;27;19935;-72
2022/11/21 13:43:09;;;;;;;;;;;4.20;99.90;;;;;;5096960;28;19996;-71
2022/11/21 13:45:42;;;;;;;;;;;4.30;99.90;;;;;;5091483;28;19928;-72
2022/11/21 13:48:26;;;;;;;;;;;4.20;99.90;;;;;;5092787;28;19928;-72
2022/11/21 13:50:54;;;;;;;;;;;4.30;99.90;;;;;;5091272;27;19920;-72
2022/11/21 13:53:20;;;;;;;;;;;4.20;99.90;;;;;;5093699;28;19924;-72
2022/11/21 13:55:57;;;;;;;;;;;4.20;99.90;;;;;;5099275;28;19942;-72
2022/11/21 13:58:27;;;;;;;;;;;4.20;99.90;;;;;;5097426;28;19927;-72
2022/11/21 14:00:52;;;;;;;;;;;4.20;99.90;;;;;;5098120;28;21274;-72
2022/11/21 14:03:37;;;;;;;;;;;4.20;99.90;;;;;;5077266;28;19923;-72
2022/11/21 14:06:28;;;;;;;;;;;4.20;99.90;;;;;;5079278;28;20423;-72
2022/11/21 14:09:04;;;;;;;;;;;4.10;99.90;;;;;;5097555;28;20420;-73
2022/11/21 14:11:40;;;;;;;;;;;4.10;99.90;;;;;;5130561;27;19923;-72
2022/11/21 14:14:07;;;;;;;;;;;4.10;99.90;;;;;;5128143;27;19919;-71
2022/11/21 14:16:40;;;;;;;;;;;4.10;99.90;;;;;;5102075;28;20453;-71
2022/11/21 14:19:11;;;;;;;;;;;4.10;99.90;;;;;;5128425;27;20028;-72
2022/11/21 14:21:37;;;;;;;;;;;4.10;99.90;;;;;;5106133;28;19946;-72
2022/11/21 14:24:10;;;;;;;;;;;4.00;99.90;;;;;;5133139;27;20382;-72
2022/11/21 14:26:40;;;;;;;;;;;4.10;99.90;;;;;;5101901;28;20011;-71
2022/11/21 14:29:21;;;;;;;;;;;4.10;99.90;;;;;;5132249;27;19928;-72
2022/11/21 14:31:47;;;;;;;;;;;4.10;99.90;;;;;;5093159;28;20014;-71
2022/11/21 14:34:22;;;;;;;;;;;4.10;99.90;;;;;;5097611;28;20105;-72
2022/11/21 14:36:47;;;;;;;;;;;4.20;99.90;;;;;;5095352;28;20259;-71
2022/11/21 14:39:14;;;;;;;;;;;4.10;99.90;;;;;;5096318;28;19926;-71
2022/11/21 14:41:41;;;;;;;;;;;4.10;99.90;;;;;;5098758;28;19977;-72
2022/11/21 14:44:07;;;;;;;;;;;4.10;99.90;;;;;;5129718;27;19992;-71
2022/11/21 14:46:34;;;;;;;;;;;4.20;99.90;;;;;;5100500;28;20362;-72
2022/11/21 14:49:14;;;;;;;;;;;4.10;99.90;;;;;;5093008;28;19970;-72
2022/11/21 14:51:40;;;;;;;;;;;4.10;99.90;;;;;;5113366;28;20442;-72
2022/11/21 14:54:11;;;;;;;;;;;4.10;99.90;;;;;;5109533;27;20026;-72
2022/11/21 14:56:39;;;;;;;;;;;4.20;99.90;;;;;;5127712;27;20366;-71
2022/11/21 14:59:08;;;;;;;;;;;4.10;99.90;;;;;;5099310;28;19962;-72
2022/11/21 15:01:34;;;;;;;;;;;4.20;99.90;;;;;;5103818;28;19928;-71
2022/11/21 15:04:04;;;;;;;;;;;4.20;99.90;;;;;;5102958;28;19977;-71
2022/11/21 15:06:32;;;;;;;;;;;4.20;99.90;;;;;;5136578;27;19928;-70